オスロ の空港の天気 - METARとTAF

オスロ空港 ( ENGM / OSL ) - ノルウェー アーケシュフース県オスロ
飛行場実況気象(Metar)
観測時間08/05 00:20 CEST (08/04 22:20 UTC)
風向・風速南 3m/s
視程10km以上
天気現象
なし
気温11℃
湿度82%
気圧1009hPa
METARENGM 042220Z 17006KT CAVOK 11/08 Q1009
過去の天気等 Google飛行場航空写真 Wunderground天気予報

過去48時間のMETAR

飛行場予報(TAF)
発表時間: -
5日8時 CEST ~ 5日10時 CEST に徐々に
天気現象
全天の8割程度の雲 雲底高度 370m
5日10時 CEST ~ 5日20時 CEST に一時的に
視程3000m
天気現象弱い雨霧雨 もや
全天の8割程度の雲 雲底高度 120m
TAF ENGM 0418/0518 19008KT CAVOK
BECMG 0506/0508 RA BKN012
TEMPO 0508/0518 3000 -RADZ BR BKN004